sensor_id;sensor_type;location;lat;lon;timestamp;temperature;humidity
23669;DHT22;12011;47.422;15.018;2023-10-13T00:02:10;9.60;99.90
23669;DHT22;12011;47.422;15.018;2023-10-13T00:04:40;9.70;99.90
23669;DHT22;12011;47.422;15.018;2023-10-13T00:07:12;9.70;99.90
23669;DHT22;12011;47.422;15.018;2023-10-13T00:09:42;9.70;99.90
23669;DHT22;12011;47.422;15.018;2023-10-13T00:12:12;9.50;99.90
23669;DHT22;12011;47.422;15.018;2023-10-13T00:14:46;9.50;99.90
23669;DHT22;12011;47.422;15.018;2023-10-13T00:17:19;9.50;99.90
23669;DHT22;12011;47.422;15.018;2023-10-13T00:19:51;9.30;99.90
23669;DHT22;12011;47.422;15.018;2023-10-13T00:22:21;9.30;99.90
23669;DHT22;12011;47.422;15.018;2023-10-13T00:24:53;9.30;99.90
23669;DHT22;12011;47.422;15.018;2023-10-13T00:27:29;9.20;99.90
23669;DHT22;12011;47.422;15.018;2023-10-13T00:30:01;9.20;99.90
23669;DHT22;12011;47.422;15.018;2023-10-13T00:32:52;9.00;99.90
23669;DHT22;12011;47.422;15.018;2023-10-13T00:35:23;9.00;99.90
23669;DHT22;12011;47.422;15.018;2023-10-13T00:38:02;9.10;99.90
23669;DHT22;12011;47.422;15.018;2023-10-13T00:40:40;9.00;99.90
23669;DHT22;12011;47.422;15.018;2023-10-13T00:43:11;8.90;99.90
23669;DHT22;12011;47.422;15.018;2023-10-13T00:45:54;9.10;99.90
23669;DHT22;12011;47.422;15.018;2023-10-13T00:48:33;8.90;99.90
23669;DHT22;12011;47.422;15.018;2023-10-13T00:51:02;9.10;99.90
23669;DHT22;12011;47.422;15.018;2023-10-13T00:53:34;8.90;99.90
23669;DHT22;12011;47.422;15.018;2023-10-13T00:56:04;8.70;99.90
23669;DHT22;12011;47.422;15.018;2023-10-13T00:58:45;8.80;99.90
23669;DHT22;12011;47.422;15.018;2023-10-13T01:01:12;8.90;99.90
23669;DHT22;12011;47.422;15.018;2023-10-13T01:03:59;8.90;99.90
23669;DHT22;12011;47.422;15.018;2023-10-13T01:06:31;8.80;99.90
23669;DHT22;12011;47.422;15.018;2023-10-13T01:09:00;8.80;99.90
23669;DHT22;12011;47.422;15.018;2023-10-13T01:11:38;8.70;99.90
23669;DHT22;12011;47.422;15.018;2023-10-13T01:14:06;8.80;99.90
23669;DHT22;12011;47.422;15.018;2023-10-13T01:16:37;8.70;99.90
23669;DHT22;12011;47.422;15.018;2023-10-13T01:19:13;8.60;99.90
23669;DHT22;12011;47.422;15.018;2023-10-13T01:21:44;8.40;99.90
23669;DHT22;12011;47.422;15.018;2023-10-13T01:24:15;8.40;99.90
23669;DHT22;12011;47.422;15.018;2023-10-13T01:26:48;8.50;99.90
23669;DHT22;12011;47.422;15.018;2023-10-13T01:29:17;8.50;99.90
23669;DHT22;12011;47.422;15.018;2023-10-13T01:31:52;8.50;99.90
23669;DHT22;12011;47.422;15.018;2023-10-13T01:34:19;8.50;99.90
23669;DHT22;12011;47.422;15.018;2023-10-13T01:36:50;8.20;99.90
23669;DHT22;12011;47.422;15.018;2023-10-13T01:39:23;8.20;99.90
23669;DHT22;12011;47.422;15.018;2023-10-13T01:41:55;8.20;99.90
23669;DHT22;12011;47.422;15.018;2023-10-13T01:44:22;8.10;99.90
23669;DHT22;12011;47.422;15.018;2023-10-13T01:46:54;8.00;99.90
23669;DHT22;12011;47.422;15.018;2023-10-13T01:49:21;8.00;99.90
23669;DHT22;12011;47.422;15.018;2023-10-13T01:51:51;7.90;99.90
23669;DHT22;12011;47.422;15.018;2023-10-13T01:54:21;7.90;99.90
23669;DHT22;12011;47.422;15.018;2023-10-13T01:56:50;7.90;99.90
23669;DHT22;12011;47.422;15.018;2023-10-13T01:59:17;7.80;99.90
23669;DHT22;12011;47.422;15.018;2023-10-13T02:01:48;7.90;99.90
23669;DHT22;12011;47.422;15.018;2023-10-13T02:04:17;7.80;99.90
23669;DHT22;12011;47.422;15.018;2023-10-13T02:06:47;8.00;99.90
23669;DHT22;12011;47.422;15.018;2023-10-13T02:09:14;8.00;99.90
23669;DHT22;12011;47.422;15.018;2023-10-13T02:11:54;7.70;99.90
23669;DHT22;12011;47.422;15.018;2023-10-13T02:14:23;7.70;99.90
23669;DHT22;12011;47.422;15.018;2023-10-13T02:16:54;7.70;99.90
23669;DHT22;12011;47.422;15.018;2023-10-13T02:19:38;7.60;99.90
23669;DHT22;12011;47.422;15.018;2023-10-13T02:22:13;7.50;99.90
23669;DHT22;12011;47.422;15.018;2023-10-13T02:24:51;7.30;99.90
23669;DHT22;12011;47.422;15.018;2023-10-13T02:27:30;7.30;99.90
23669;DHT22;12011;47.422;15.018;2023-10-13T02:30:08;7.20;99.90
23669;DHT22;12011;47.422;15.018;2023-10-13T02:32:40;7.30;99.90
23669;DHT22;12011;47.422;15.018;2023-10-13T02:35:11;7.30;99.90
23669;DHT22;12011;47.422;15.018;2023-10-13T02:37:42;7.30;99.90
23669;DHT22;12011;47.422;15.018;2023-10-13T02:40:21;7.30;99.90
23669;DHT22;12011;47.422;15.018;2023-10-13T02:42:52;7.20;99.90
23669;DHT22;12011;47.422;15.018;2023-10-13T02:45:22;7.20;99.90
23669;DHT22;12011;47.422;15.018;2023-10-13T02:47:52;7.30;99.90
23669;DHT22;12011;47.422;15.018;2023-10-13T02:50:41;7.20;99.90
23669;DHT22;12011;47.422;15.018;2023-10-13T02:53:13;7.30;99.90
23669;DHT22;12011;47.422;15.018;2023-10-13T02:55:52;7.40;99.90
23669;DHT22;12011;47.422;15.018;2023-10-13T02:58:24;7.30;99.90
23669;DHT22;12011;47.422;15.018;2023-10-13T03:01:07;7.30;99.90
23669;DHT22;12011;47.422;15.018;2023-10-13T03:03:48;7.30;99.90
23669;DHT22;12011;47.422;15.018;2023-10-13T03:06:22;7.30;99.90
23669;DHT22;12011;47.422;15.018;2023-10-13T03:09:01;7.20;99.90
23669;DHT22;12011;47.422;15.018;2023-10-13T03:11:41;7.10;99.90
23669;DHT22;12011;47.422;15.018;2023-10-13T03:14:19;7.10;99.90
23669;DHT22;12011;47.422;15.018;2023-10-13T03:16:59;7.10;99.90
23669;DHT22;12011;47.422;15.018;2023-10-13T03:19:29;7.00;99.90
23669;DHT22;12011;47.422;15.018;2023-10-13T03:22:05;7.00;99.90
23669;DHT22;12011;47.422;15.018;2023-10-13T03:24:35;6.90;99.90
23669;DHT22;12011;47.422;15.018;2023-10-13T03:27:11;6.90;99.90
23669;DHT22;12011;47.422;15.018;2023-10-13T03:29:46;7.00;99.90
23669;DHT22;12011;47.422;15.018;2023-10-13T03:32:15;6.90;99.90
23669;DHT22;12011;47.422;15.018;2023-10-13T03:34:47;7.00;99.90
23669;DHT22;12011;47.422;15.018;2023-10-13T03:40:45;7.10;99.90
23669;DHT22;12011;47.422;15.018;2023-10-13T03:43:47;6.80;99.90
23669;DHT22;12011;47.422;15.018;2023-10-13T03:46:41;7.00;99.90
23669;DHT22;12011;47.422;15.018;2023-10-13T03:49:42;6.90;99.90
23669;DHT22;12011;47.422;15.018;2023-10-13T03:52:26;7.10;99.90
23669;DHT22;12011;47.422;15.018;2023-10-13T03:55:15;6.80;99.90
23669;DHT22;12011;47.422;15.018;2023-10-13T03:58:15;6.70;99.90
23669;DHT22;12011;47.422;15.018;2023-10-13T04:00:54;6.20;99.90
23669;DHT22;12011;47.422;15.018;2023-10-13T04:04:08;5.80;99.90
23669;DHT22;12011;47.422;15.018;2023-10-13T04:07:08;6.40;99.90
23669;DHT22;12011;47.422;15.018;2023-10-13T04:12:44;6.30;99.90
23669;DHT22;12011;47.422;15.018;2023-10-13T04:15:48;6.40;99.90
23669;DHT22;12011;47.422;15.018;2023-10-13T04:18:40;6.30;99.90
23669;DHT22;12011;47.422;15.018;2023-10-13T04:22:07;6.40;99.90
23669;DHT22;12011;47.422;15.018;2023-10-13T04:24:50;6.30;99.90
23669;DHT22;12011;47.422;15.018;2023-10-13T04:30:39;6.30;99.90
23669;DHT22;12011;47.422;15.018;2023-10-13T04:33:35;6.10;99.90
23669;DHT22;12011;47.422;15.018;2023-10-13T04:39:32;6.20;99.90
23669;DHT22;12011;47.422;15.018;2023-10-13T04:42:47;5.90;99.90
23669;DHT22;12011;47.422;15.018;2023-10-13T04:45:55;6.10;99.90
23669;DHT22;12011;47.422;15.018;2023-10-13T04:48:57;5.20;99.90
23669;DHT22;12011;47.422;15.018;2023-10-13T04:55:18;6.10;99.90
23669;DHT22;12011;47.422;15.018;2023-10-13T04:58:23;6.00;99.90
23669;DHT22;12011;47.422;15.018;2023-10-13T05:01:12;6.10;99.90
23669;DHT22;12011;47.422;15.018;2023-10-13T05:04:25;6.20;99.90
23669;DHT22;12011;47.422;15.018;2023-10-13T05:07:27;6.20;99.90
23669;DHT22;12011;47.422;15.018;2023-10-13T05:10:09;6.10;99.90
23669;DHT22;12011;47.422;15.018;2023-10-13T05:12:51;6.10;99.90
23669;DHT22;12011;47.422;15.018;2023-10-13T05:15:42;6.00;99.90
23669;DHT22;12011;47.422;15.018;2023-10-13T05:18:25;6.00;99.90
23669;DHT22;12011;47.422;15.018;2023-10-13T05:21:18;5.90;99.90
23669;DHT22;12011;47.422;15.018;2023-10-13T05:24:00;5.90;99.90
23669;DHT22;12011;47.422;15.018;2023-10-13T05:26:42;5.90;99.90
23669;DHT22;12011;47.422;15.018;2023-10-13T05:29:24;6.10;99.90
23669;DHT22;12011;47.422;15.018;2023-10-13T05:32:09;6.30;99.90
23669;DHT22;12011;47.422;15.018;2023-10-13T05:34:51;6.40;99.90
23669;DHT22;12011;47.422;15.018;2023-10-13T05:37:32;6.50;99.90
23669;DHT22;12011;47.422;15.018;2023-10-13T05:40:14;6.70;99.90
23669;DHT22;12011;47.422;15.018;2023-10-13T05:42:57;6.80;99.90
23669;DHT22;12011;47.422;15.018;2023-10-13T05:45:39;6.90;99.90
23669;DHT22;12011;47.422;15.018;2023-10-13T05:48:39;7.00;99.90
23669;DHT22;12011;47.422;15.018;2023-10-13T05:51:35;6.80;99.90
23669;DHT22;12011;47.422;15.018;2023-10-13T05:54:24;6.90;99.90
23669;DHT22;12011;47.422;15.018;2023-10-13T05:57:06;7.00;99.90
23669;DHT22;12011;47.422;15.018;2023-10-13T05:59:48;7.00;99.90
23669;DHT22;12011;47.422;15.018;2023-10-13T06:02:31;7.20;99.90
23669;DHT22;12011;47.422;15.018;2023-10-13T06:05:16;7.40;99.90
23669;DHT22;12011;47.422;15.018;2023-10-13T06:07:58;7.70;99.90
23669;DHT22;12011;47.422;15.018;2023-10-13T06:10:41;8.00;99.90
23669;DHT22;12011;47.422;15.018;2023-10-13T06:13:23;8.20;99.90
23669;DHT22;12011;47.422;15.018;2023-10-13T06:16:06;8.40;99.90
23669;DHT22;12011;47.422;15.018;2023-10-13T06:18:48;8.50;99.90
23669;DHT22;12011;47.422;15.018;2023-10-13T06:21:33;8.90;99.90
23669;DHT22;12011;47.422;15.018;2023-10-13T06:24:14;9.00;99.90
23669;DHT22;12011;47.422;15.018;2023-10-13T06:26:56;8.80;99.90
23669;DHT22;12011;47.422;15.018;2023-10-13T06:29:38;8.80;99.90
23669;DHT22;12011;47.422;15.018;2023-10-13T06:32:08;8.90;99.90
23669;DHT22;12011;47.422;15.018;2023-10-13T06:34:39;8.90;99.90
23669;DHT22;12011;47.422;15.018;2023-10-13T06:37:14;9.00;99.90
23669;DHT22;12011;47.422;15.018;2023-10-13T06:39:57;9.30;99.90
23669;DHT22;12011;47.422;15.018;2023-10-13T06:42:32;10.30;99.90
23669;DHT22;12011;47.422;15.018;2023-10-13T06:45:09;11.00;99.90
23669;DHT22;12011;47.422;15.018;2023-10-13T06:47:39;11.20;99.90
23669;DHT22;12011;47.422;15.018;2023-10-13T06:50:09;11.30;99.90
23669;DHT22;12011;47.422;15.018;2023-10-13T06:52:45;11.20;99.90
23669;DHT22;12011;47.422;15.018;2023-10-13T06:55:16;11.20;99.90
23669;DHT22;12011;47.422;15.018;2023-10-13T06:57:50;11.30;99.90
23669;DHT22;12011;47.422;15.018;2023-10-13T07:00:20;11.30;99.90
23669;DHT22;12011;47.422;15.018;2023-10-13T07:02:59;11.30;99.90
23669;DHT22;12011;47.422;15.018;2023-10-13T07:05:36;11.40;99.90
23669;DHT22;12011;47.422;15.018;2023-10-13T07:08:11;11.50;99.90
23669;DHT22;12011;47.422;15.018;2023-10-13T07:27:54;19.80;58.90
23669;DHT22;12011;47.422;15.018;2023-10-13T07:30:23;20.00;57.60
23669;DHT22;12011;47.422;15.018;2023-10-13T07:32:57;20.00;54.50
23669;DHT22;12011;47.422;15.018;2023-10-13T07:35:27;20.60;55.00
23669;DHT22;12011;47.422;15.018;2023-10-13T07:38:01;20.80;53.30
23669;DHT22;12011;47.422;15.018;2023-10-13T07:40:35;21.30;52.70
23669;DHT22;12011;47.422;15.018;2023-10-13T07:43:22;21.80;50.20
23669;DHT22;12011;47.422;15.018;2023-10-13T07:46:08;22.10;50.10
23669;DHT22;12011;47.422;15.018;2023-10-13T07:48:46;22.30;48.80
23669;DHT22;12011;47.422;15.018;2023-10-13T07:52:04;22.50;46.40
23669;DHT22;12011;47.422;15.018;2023-10-13T07:55:11;22.70;46.70
23669;DHT22;12011;47.422;15.018;2023-10-13T07:57:52;22.80;46.40
23669;DHT22;12011;47.422;15.018;2023-10-13T08:00:55;22.90;47.10
23669;DHT22;12011;47.422;15.018;2023-10-13T08:03:48;23.20;44.80
23669;DHT22;12011;47.422;15.018;2023-10-13T08:06:50;23.70;46.60
23669;DHT22;12011;47.422;15.018;2023-10-13T08:09:44;24.50;45.80
23669;DHT22;12011;47.422;15.018;2023-10-13T08:12:39;24.60;43.70
23669;DHT22;12011;47.422;15.018;2023-10-13T08:15:51;25.10;45.00
23669;DHT22;12011;47.422;15.018;2023-10-13T08:22:19;25.30;43.70
23669;DHT22;12011;47.422;15.018;2023-10-13T08:25:33;25.30;44.20
23669;DHT22;12011;47.422;15.018;2023-10-13T08:28:27;25.40;44.50
23669;DHT22;12011;47.422;15.018;2023-10-13T08:31:30;25.60;41.60
23669;DHT22;12011;47.422;15.018;2023-10-13T08:34:37;25.30;40.90
23669;DHT22;12011;47.422;15.018;2023-10-13T08:41:31;26.00;44.40
23669;DHT22;12011;47.422;15.018;2023-10-13T08:44:23;26.80;41.30
23669;DHT22;12011;47.422;15.018;2023-10-13T08:47:06;26.90;39.90
23669;DHT22;12011;47.422;15.018;2023-10-13T08:49:44;27.20;38.40
23669;DHT22;12011;47.422;15.018;2023-10-13T08:52:20;27.10;38.90
23669;DHT22;12011;47.422;15.018;2023-10-13T08:55:10;27.40;40.10
23669;DHT22;12011;47.422;15.018;2023-10-13T08:58:04;26.80;39.30
23669;DHT22;12011;47.422;15.018;2023-10-13T09:00:42;26.40;39.50
23669;DHT22;12011;47.422;15.018;2023-10-13T09:03:41;27.40;40.90
23669;DHT22;12011;47.422;15.018;2023-10-13T09:06:18;27.30;39.70
23669;DHT22;12011;47.422;15.018;2023-10-13T09:08:46;27.20;38.90
23669;DHT22;12011;47.422;15.018;2023-10-13T09:11:31;27.30;40.00
23669;DHT22;12011;47.422;15.018;2023-10-13T09:14:15;27.40;39.10
23669;DHT22;12011;47.422;15.018;2023-10-13T09:17:02;27.40;38.60
23669;DHT22;12011;47.422;15.018;2023-10-13T09:19:49;27.00;38.10
23669;DHT22;12011;47.422;15.018;2023-10-13T09:22:22;27.10;37.70
23669;DHT22;12011;47.422;15.018;2023-10-13T09:25:02;27.30;41.20
23669;DHT22;12011;47.422;15.018;2023-10-13T09:27:32;27.40;40.20
23669;DHT22;12011;47.422;15.018;2023-10-13T09:30:06;27.30;36.50
23669;DHT22;12011;47.422;15.018;2023-10-13T09:32:36;27.20;38.60
23669;DHT22;12011;47.422;15.018;2023-10-13T09:35:21;27.20;37.00
23669;DHT22;12011;47.422;15.018;2023-10-13T09:37:50;27.30;37.50
23669;DHT22;12011;47.422;15.018;2023-10-13T09:40:23;27.60;37.50
23669;DHT22;12011;47.422;15.018;2023-10-13T09:43:00;27.90;37.70
23669;DHT22;12011;47.422;15.018;2023-10-13T09:45:35;27.20;39.60
23669;DHT22;12011;47.422;15.018;2023-10-13T09:48:11;27.00;37.60
23669;DHT22;12011;47.422;15.018;2023-10-13T09:51:14;27.50;39.10
23669;DHT22;12011;47.422;15.018;2023-10-13T09:54:54;27.80;38.40
23669;DHT22;12011;47.422;15.018;2023-10-13T09:58:55;28.20;39.10
23669;DHT22;12011;47.422;15.018;2023-10-13T10:05:47;28.70;36.20
23669;DHT22;12011;47.422;15.018;2023-10-13T10:09:40;28.90;34.90
23669;DHT22;12011;47.422;15.018;2023-10-13T10:13:32;28.80;36.50
23669;DHT22;12011;47.422;15.018;2023-10-13T10:17:44;28.90;37.50
23669;DHT22;12011;47.422;15.018;2023-10-13T10:36:30;29.00;34.50
23669;DHT22;12011;47.422;15.018;2023-10-13T10:39:53;29.00;34.10
23669;DHT22;12011;47.422;15.018;2023-10-13T10:47:16;30.50;34.40
23669;DHT22;12011;47.422;15.018;2023-10-13T10:55:11;30.80;33.30
23669;DHT22;12011;47.422;15.018;2023-10-13T11:03:13;31.00;30.90
23669;DHT22;12011;47.422;15.018;2023-10-13T11:07:25;31.40;31.30
23669;DHT22;12011;47.422;15.018;2023-10-13T11:15:22;31.20;33.10
23669;DHT22;12011;47.422;15.018;2023-10-13T11:23:10;31.20;31.50
23669;DHT22;12011;47.422;15.018;2023-10-13T11:27:11;31.10;31.00
23669;DHT22;12011;47.422;15.018;2023-10-13T11:55:50;31.70;30.40
23669;DHT22;12011;47.422;15.018;2023-10-13T12:17:32;29.30;33.70
23669;DHT22;12011;47.422;15.018;2023-10-13T12:21:12;29.10;34.30
23669;DHT22;12011;47.422;15.018;2023-10-13T12:24:36;29.00;35.30
23669;DHT22;12011;47.422;15.018;2023-10-13T12:27:41;28.60;34.00
23669;DHT22;12011;47.422;15.018;2023-10-13T12:30:44;28.00;36.60
23669;DHT22;12011;47.422;15.018;2023-10-13T12:34:18;27.60;37.90
23669;DHT22;12011;47.422;15.018;2023-10-13T12:37:48;27.30;39.00
23669;DHT22;12011;47.422;15.018;2023-10-13T12:41:16;27.10;37.70
23669;DHT22;12011;47.422;15.018;2023-10-13T12:44:24;26.70;39.30
23669;DHT22;12011;47.422;15.018;2023-10-13T12:47:57;26.20;39.00
23669;DHT22;12011;47.422;15.018;2023-10-13T12:51:15;26.10;41.00
23669;DHT22;12011;47.422;15.018;2023-10-13T12:54:57;25.90;40.70
23669;DHT22;12011;47.422;15.018;2023-10-13T12:58:31;25.80;43.00
23669;DHT22;12011;47.422;15.018;2023-10-13T13:02:50;25.70;39.40
23669;DHT22;12011;47.422;15.018;2023-10-13T13:21:17;25.10;40.70
23669;DHT22;12011;47.422;15.018;2023-10-13T13:24:59;25.00;45.50
23669;DHT22;12011;47.422;15.018;2023-10-13T13:28:59;25.20;43.90
23669;DHT22;12011;47.422;15.018;2023-10-13T13:44:14;24.90;42.40
23669;DHT22;12011;47.422;15.018;2023-10-13T13:48:01;24.80;43.60
23669;DHT22;12011;47.422;15.018;2023-10-13T13:54:26;24.60;42.10
23669;DHT22;12011;47.422;15.018;2023-10-13T13:57:35;24.50;43.50
23669;DHT22;12011;47.422;15.018;2023-10-13T14:01:52;24.70;47.00
23669;DHT22;12011;47.422;15.018;2023-10-13T14:06:01;24.70;54.00
23669;DHT22;12011;47.422;15.018;2023-10-13T14:20:20;24.60;43.20
23669;DHT22;12011;47.422;15.018;2023-10-13T14:23:43;24.50;44.40
23669;DHT22;12011;47.422;15.018;2023-10-13T14:30:47;23.90;55.80
23669;DHT22;12011;47.422;15.018;2023-10-13T14:34:28;23.60;60.30
23669;DHT22;12011;47.422;15.018;2023-10-13T14:44:35;23.60;56.30
23669;DHT22;12011;47.422;15.018;2023-10-13T14:48:34;23.70;54.20
23669;DHT22;12011;47.422;15.018;2023-10-13T14:51:46;23.60;55.40
23669;DHT22;12011;47.422;15.018;2023-10-13T15:07:29;22.90;71.70
23669;DHT22;12011;47.422;15.018;2023-10-13T15:18:13;22.00;63.20
23669;DHT22;12011;47.422;15.018;2023-10-13T15:25:05;21.60;67.50
23669;DHT22;12011;47.422;15.018;2023-10-13T15:28:48;21.20;72.80
23669;DHT22;12011;47.422;15.018;2023-10-13T15:32:16;20.70;68.00
23669;DHT22;12011;47.422;15.018;2023-10-13T15:36:00;20.40;68.10
23669;DHT22;12011;47.422;15.018;2023-10-13T15:42:28;19.90;75.60
23669;DHT22;12011;47.422;15.018;2023-10-13T15:46:08;19.60;80.70
23669;DHT22;12011;47.422;15.018;2023-10-13T15:49:37;19.40;77.80
23669;DHT22;12011;47.422;15.018;2023-10-13T15:52:38;18.90;82.30
23669;DHT22;12011;47.422;15.018;2023-10-13T15:55:37;18.80;77.40
23669;DHT22;12011;47.422;15.018;2023-10-13T15:58:28;18.60;85.90
23669;DHT22;12011;47.422;15.018;2023-10-13T16:01:52;18.50;88.40
23669;DHT22;12011;47.422;15.018;2023-10-13T16:05:26;18.10;90.00
23669;DHT22;12011;47.422;15.018;2023-10-13T16:08:25;17.80;95.70
23669;DHT22;12011;47.422;15.018;2023-10-13T16:11:29;17.40;94.80
23669;DHT22;12011;47.422;15.018;2023-10-13T16:14:15;17.00;99.90
23669;DHT22;12011;47.422;15.018;2023-10-13T16:16:56;16.60;99.90
23669;DHT22;12011;47.422;15.018;2023-10-13T16:19:42;16.40;99.90
23669;DHT22;12011;47.422;15.018;2023-10-13T16:22:27;16.30;99.90
23669;DHT22;12011;47.422;15.018;2023-10-13T16:25:27;16.20;99.90
23669;DHT22;12011;47.422;15.018;2023-10-13T16:28:12;16.00;99.90
23669;DHT22;12011;47.422;15.018;2023-10-13T16:30:44;15.90;99.90
23669;DHT22;12011;47.422;15.018;2023-10-13T16:33:33;15.60;99.90
23669;DHT22;12011;47.422;15.018;2023-10-13T16:36:14;15.60;99.90
23669;DHT22;12011;47.422;15.018;2023-10-13T16:38:58;15.20;99.90
23669;DHT22;12011;47.422;15.018;2023-10-13T16:41:36;14.90;99.90
23669;DHT22;12011;47.422;15.018;2023-10-13T16:44:25;14.90;99.90
23669;DHT22;12011;47.422;15.018;2023-10-13T16:47:06;14.90;99.90
23669;DHT22;12011;47.422;15.018;2023-10-13T16:49:49;14.80;99.90
23669;DHT22;12011;47.422;15.018;2023-10-13T16:52:29;15.00;99.90
23669;DHT22;12011;47.422;15.018;2023-10-13T16:55:28;14.70;99.90
23669;DHT22;12011;47.422;15.018;2023-10-13T16:58:17;14.30;99.90
23669;DHT22;12011;47.422;15.018;2023-10-13T17:00:51;14.20;99.90
23669;DHT22;12011;47.422;15.018;2023-10-13T17:03:43;14.10;99.90
23669;DHT22;12011;47.422;15.018;2023-10-13T17:06:32;14.30;99.90
23669;DHT22;12011;47.422;15.018;2023-10-13T17:09:16;14.10;99.90
23669;DHT22;12011;47.422;15.018;2023-10-13T17:11:50;14.20;99.90
23669;DHT22;12011;47.422;15.018;2023-10-13T17:14:35;13.80;99.90
23669;DHT22;12011;47.422;15.018;2023-10-13T17:17:20;13.80;99.90
23669;DHT22;12011;47.422;15.018;2023-10-13T17:19:54;13.60;99.90
23669;DHT22;12011;47.422;15.018;2023-10-13T17:22:32;13.50;99.90
23669;DHT22;12011;47.422;15.018;2023-10-13T17:25:10;13.40;99.90
23669;DHT22;12011;47.422;15.018;2023-10-13T17:27:59;13.40;99.90
23669;DHT22;12011;47.422;15.018;2023-10-13T17:31:04;13.10;99.90
23669;DHT22;12011;47.422;15.018;2023-10-13T17:33:50;13.10;99.90
23669;DHT22;12011;47.422;15.018;2023-10-13T17:36:25;13.10;99.90
23669;DHT22;12011;47.422;15.018;2023-10-13T17:39:02;13.20;99.90
23669;DHT22;12011;47.422;15.018;2023-10-13T17:41:53;13.20;99.90
23669;DHT22;12011;47.422;15.018;2023-10-13T17:44:27;13.20;99.90
23669;DHT22;12011;47.422;15.018;2023-10-13T17:47:11;13.00;99.90
23669;DHT22;12011;47.422;15.018;2023-10-13T17:49:48;12.70;99.90
23669;DHT22;12011;47.422;15.018;2023-10-13T17:52:21;12.50;99.90
23669;DHT22;12011;47.422;15.018;2023-10-13T17:54:56;12.50;99.90
23669;DHT22;12011;47.422;15.018;2023-10-13T17:57:30;12.50;99.90
23669;DHT22;12011;47.422;15.018;2023-10-13T18:00:03;12.50;99.90
23669;DHT22;12011;47.422;15.018;2023-10-13T18:02:45;12.50;99.90
23669;DHT22;12011;47.422;15.018;2023-10-13T18:05:25;12.60;99.90
23669;DHT22;12011;47.422;15.018;2023-10-13T18:07:57;12.50;99.90
23669;DHT22;12011;47.422;15.018;2023-10-13T18:10:34;12.50;99.90
23669;DHT22;12011;47.422;15.018;2023-10-13T18:13:12;12.50;99.90
23669;DHT22;12011;47.422;15.018;2023-10-13T18:15:45;12.50;99.90
23669;DHT22;12011;47.422;15.018;2023-10-13T18:18:24;12.10;99.90
23669;DHT22;12011;47.422;15.018;2023-10-13T18:21:03;12.10;99.90
23669;DHT22;12011;47.422;15.018;2023-10-13T18:23:42;11.80;99.90
23669;DHT22;12011;47.422;15.018;2023-10-13T18:26:16;11.70;99.90
23669;DHT22;12011;47.422;15.018;2023-10-13T18:28:50;11.80;99.90
23669;DHT22;12011;47.422;15.018;2023-10-13T18:31:26;11.90;99.90
23669;DHT22;12011;47.422;15.018;2023-10-13T18:34:02;11.90;99.90
23669;DHT22;12011;47.422;15.018;2023-10-13T18:36:35;11.70;99.90
23669;DHT22;12011;47.422;15.018;2023-10-13T18:39:07;11.50;99.90
23669;DHT22;12011;47.422;15.018;2023-10-13T18:41:47;11.50;99.90
23669;DHT22;12011;47.422;15.018;2023-10-13T18:44:22;11.30;99.90
23669;DHT22;12011;47.422;15.018;2023-10-13T18:46:54;11.30;99.90
23669;DHT22;12011;47.422;15.018;2023-10-13T18:49:34;11.40;99.90
23669;DHT22;12011;47.422;15.018;2023-10-13T18:52:08;11.40;99.90
23669;DHT22;12011;47.422;15.018;2023-10-13T18:54:40;11.40;99.90
23669;DHT22;12011;47.422;15.018;2023-10-13T18:57:14;11.40;99.90
23669;DHT22;12011;47.422;15.018;2023-10-13T18:59:44;11.40;99.90
23669;DHT22;12011;47.422;15.018;2023-10-13T19:02:14;11.30;99.90
23669;DHT22;12011;47.422;15.018;2023-10-13T19:04:49;11.40;99.90
23669;DHT22;12011;47.422;15.018;2023-10-13T19:07:22;11.40;99.90
23669;DHT22;12011;47.422;15.018;2023-10-13T19:09:57;11.20;99.90
23669;DHT22;12011;47.422;15.018;2023-10-13T19:12:26;11.00;99.90
23669;DHT22;12011;47.422;15.018;2023-10-13T19:14:57;10.80;99.90
23669;DHT22;12011;47.422;15.018;2023-10-13T19:17:36;10.80;99.90
23669;DHT22;12011;47.422;15.018;2023-10-13T19:20:20;10.90;99.90
23669;DHT22;12011;47.422;15.018;2023-10-13T19:22:52;10.60;99.90
23669;DHT22;12011;47.422;15.018;2023-10-13T19:25:25;10.90;99.90
23669;DHT22;12011;47.422;15.018;2023-10-13T19:27:57;10.90;99.90
23669;DHT22;12011;47.422;15.018;2023-10-13T19:30:26;10.60;99.90
23669;DHT22;12011;47.422;15.018;2023-10-13T19:33:00;10.40;99.90
23669;DHT22;12011;47.422;15.018;2023-10-13T19:35:40;10.20;99.90
23669;DHT22;12011;47.422;15.018;2023-10-13T19:38:12;10.30;99.90
23669;DHT22;12011;47.422;15.018;2023-10-13T19:40:47;10.40;99.90
23669;DHT22;12011;47.422;15.018;2023-10-13T19:43:18;10.40;99.90
23669;DHT22;12011;47.422;15.018;2023-10-13T19:46:05;10.40;99.90
23669;DHT22;12011;47.422;15.018;2023-10-13T19:48:36;10.30;99.90
23669;DHT22;12011;47.422;15.018;2023-10-13T19:51:11;10.20;99.90
23669;DHT22;12011;47.422;15.018;2023-10-13T19:53:46;10.10;99.90
23669;DHT22;12011;47.422;15.018;2023-10-13T19:56:19;10.20;99.90
23669;DHT22;12011;47.422;15.018;2023-10-13T19:58:51;10.10;99.90
23669;DHT22;12011;47.422;15.018;2023-10-13T20:01:24;9.90;99.90
23669;DHT22;12011;47.422;15.018;2023-10-13T20:03:59;9.80;99.90
23669;DHT22;12011;47.422;15.018;2023-10-13T20:06:36;9.70;99.90
23669;DHT22;12011;47.422;15.018;2023-10-13T20:09:15;9.80;99.90
23669;DHT22;12011;47.422;15.018;2023-10-13T20:11:52;9.90;99.90
23669;DHT22;12011;47.422;15.018;2023-10-13T20:14:25;9.90;99.90
23669;DHT22;12011;47.422;15.018;2023-10-13T20:16:55;10.00;99.90
23669;DHT22;12011;47.422;15.018;2023-10-13T20:19:27;10.00;99.90
23669;DHT22;12011;47.422;15.018;2023-10-13T20:21:59;10.00;99.90
23669;DHT22;12011;47.422;15.018;2023-10-13T20:24:36;9.90;99.90
23669;DHT22;12011;47.422;15.018;2023-10-13T20:27:07;9.70;99.90
23669;DHT22;12011;47.422;15.018;2023-10-13T20:29:37;9.50;99.90
23669;DHT22;12011;47.422;15.018;2023-10-13T20:32:10;9.60;99.90
23669;DHT22;12011;47.422;15.018;2023-10-13T20:34:46;9.50;99.90
23669;DHT22;12011;47.422;15.018;2023-10-13T20:37:19;9.60;99.90
23669;DHT22;12011;47.422;15.018;2023-10-13T20:39:51;9.50;99.90
23669;DHT22;12011;47.422;15.018;2023-10-13T20:42:24;9.30;99.90
23669;DHT22;12011;47.422;15.018;2023-10-13T20:45:05;9.20;99.90
23669;DHT22;12011;47.422;15.018;2023-10-13T20:47:37;9.20;99.90
23669;DHT22;12011;47.422;15.018;2023-10-13T20:50:08;8.90;99.90
23669;DHT22;12011;47.422;15.018;2023-10-13T20:52:40;8.90;99.90
23669;DHT22;12011;47.422;15.018;2023-10-13T20:55:13;8.90;99.90
23669;DHT22;12011;47.422;15.018;2023-10-13T20:57:44;8.90;99.90